Fjordprinsessen — LJVE — position and weather

sailwx.info

Track history (hours):
 
Tides and Currents Weather Stations Pressure Air Temp Water Temp Dewpoint Dewpoint Depression Visibility Wind Speed Wind Dir Waves Ship Positions

Fjordprinsessen

Last reported at 2017-May-26 09:30 UTC. Time now 2017-May-26 09:33 UTC.
Position N 67°17' E 014°22'.

Length 30 m.

Type: High speed craft. MMSI: 259604000.

Date/timePositionNaut miles runAvg speedWind from/ knotsBaromVisibWave heightAir tempDewpointWater temp
2017-May-26 09:30N 67°17' E 014°22'0 0.0
2017-May-26 09:00N 67°17' E 014°22'0 0.0
2017-May-26 08:30N 67°17' E 014°22'0 0.0
2017-May-26 08:00N 67°17' E 014°22'0 0.0
2017-May-26 07:30N 67°17' E 014°22'0 0.0
2017-May-26 07:00N 67°17' E 014°22'0 0.0
2017-May-26 06:30N 67°17' E 014°22'0 0.0
2017-May-26 06:00N 67°17' E 014°22'0 0.0
2017-May-26 05:30N 67°17' E 014°22'0 0.3
2017-May-26 05:01N 67°17' E 014°22'1224.6
2017-May-26 04:31N 67°07' E 014°03'4 7.3
2017-May-26 04:01N 67°11' E 014°05'918.0
2017-May-26 03:30N 67°17' E 014°22'0 0.0
2017-May-26 02:59N 67°17' E 014°22'0 0.0
2017-May-26 02:29N 67°17' E 014°22'0 0.0
2017-May-26 01:59N 67°17' E 014°22'0 0.0
2017-May-26 01:29N 67°17' E 014°22'0 0.0
2017-May-26 00:59N 67°17' E 014°22'0 0.0
2017-May-26 00:29N 67°17' E 014°22'0 0.0
2017-May-25 23:59N 67°17' E 014°22'0 0.0
2017-May-25 23:29N 67°17' E 014°22'0 0.0
2017-May-25 22:59N 67°17' E 014°22'0 0.0
2017-May-25 22:29N 67°17' E 014°22'0 0.0
2017-May-25 21:59N 67°17' E 014°22'0 0.0
2017-May-25 21:29N 67°17' E 014°22'0 0.0
2017-May-25 20:59N 67°17' E 014°22'0 0.0
2017-May-25 20:29N 67°17' E 014°22'3 6.8
2017-May-25 20:01N 67°17' E 014°14'1019.3
2017-May-25 19:29N 67°12' E 013°51'3 6.4
2017-May-25 19:00N 67°09' E 013°52'4 8.4
2017-May-25 18:31N 67°07' E 014°02'1224.9
2017-May-25 18:01N 67°17' E 014°22'0 0.0
2017-May-25 17:30N 67°17' E 014°22'0 0.0
2017-May-25 17:00N 67°17' E 014°22'0 0.0
2017-May-25 16:30N 67°17' E 014°22'0 0.0
2017-May-25 16:00N 67°17' E 014°22'612.1
2017-May-25 15:31N 67°22' E 014°13'813.9
2017-May-25 14:57N 67°24' E 013°54'717.1
2017-May-25 14:30N 67°24' E 014°13'8 7.6
2017-May-25 13:30N 67°17' E 014°22'0 0.0
2017-May-25 13:00N 67°17' E 014°22'0 0.0
2017-May-25 12:30N 67°17' E 014°22'0 0.0
2017-May-25 12:00N 67°17' E 014°22'0 0.0
2017-May-25 11:30N 67°17' E 014°22'0 0.0
2017-May-25 11:00N 67°17' E 014°22'0 0.0
2017-May-25 10:30N 67°17' E 014°22'510.4
2017-May-25 10:01N 67°17' E 014°09'1020.0
2017-May-25 09:31N 67°11' E 013°49'4 8.5
2017-May-25 09:01N 67°07' E 013°55'510.4
2017-May-25 08:31N 67°11' E 014°05'918.6
2017-May-25 08:00N 67°17' E 014°22'0 0.0
2017-May-25 07:28N 67°17' E 014°22'0 0.0
2017-May-25 06:58N 67°17' E 014°22'0 0.0
2017-May-25 06:28N 67°17' E 014°22'0 0.0
2017-May-25 05:58N 67°17' E 014°22'0 0.0
2017-May-25 05:28N 67°17' E 014°22'0 0.0
2017-May-25 04:58N 67°17' E 014°22'0 0.0
2017-May-25 04:28N 67°17' E 014°22'0 0.0
2017-May-25 03:58N 67°17' E 014°22'0 0.0
2017-May-25 03:28N 67°17' E 014°22'0 0.0
2017-May-25 02:58N 67°17' E 014°22'0 0.0
2017-May-25 02:28N 67°17' E 014°22'0 0.0
2017-May-25 01:58N 67°17' E 014°22'0 0.0
2017-May-25 01:28N 67°17' E 014°22'0 0.0
2017-May-25 00:58N 67°17' E 014°22'0 0.0
2017-May-25 00:28N 67°17' E 014°22'0 0.0
2017-May-24 23:58N 67°17' E 014°22'0 0.0
2017-May-24 23:28N 67°17' E 014°22'0 0.0
2017-May-24 22:58N 67°17' E 014°22'0 0.0
2017-May-24 22:28N 67°17' E 014°22'0 0.0
2017-May-24 21:58N 67°17' E 014°22'0 0.0
2017-May-24 21:28N 67°17' E 014°22'0 0.0
2017-May-24 20:58N 67°17' E 014°22'0 0.0
2017-May-24 20:28N 67°17' E 014°22'0 0.0
2017-May-24 20:00N 67°17' E 014°22'1121.3
2017-May-24 19:31N 67°12' E 013°59'510.7
2017-May-24 19:00N 67°08' E 013°49'510.3
2017-May-24 18:31N 67°08' E 014°02'1224.4
2017-May-24 18:00N 67°17' E 014°22'0 0.0
2017-May-24 17:30N 67°17' E 014°22'0 0.0
2017-May-24 17:00N 67°17' E 014°22'0 0.2
2017-May-24 16:31N 67°17' E 014°23'916.4
2017-May-24 15:59N 67°17' E 014°01'918.6
2017-May-24 15:30N 67°10' E 013°46'510.2
2017-May-24 15:00N 67°07' E 013°57'2 3.8
2017-May-24 14:30N 67°08' E 014°02'1212.2
2017-May-24 13:30N 67°17' E 014°22'0 0.3
2017-May-24 13:00N 67°17' E 014°23'0 0.3
2017-May-24 12:30N 67°17' E 014°22'0 0.0
2017-May-24 12:00N 67°17' E 014°22'0 0.0
2017-May-24 11:30N 67°17' E 014°22'0 0.0
2017-May-24 11:00N 67°17' E 014°22'0 0.0
2017-May-24 10:30N 67°17' E 014°22'0 0.0
2017-May-24 10:00N 67°17' E 014°22'0 0.0
2017-May-24 09:30N 67°17' E 014°22'0 0.0
2017-May-24 09:00N 67°17' E 014°22'918.0
2017-May-24 08:31N 67°25' E 014°33'2211.5
2017-May-24 06:36N 67°47' E 014°31'225.2
2017-May-24 06:30N 67°46' E 014°37'815.9
2017-May-24 06:00N 67°38' E 014°42'1427.4
2017-May-24 05:30N 67°25' E 014°32'917.7
2017-May-24 05:01N 67°17' E 014°22'1224.3
2017-May-24 04:30N 67°07' E 014°03'3 5.7
2017-May-24 04:01N 67°10' E 014°04'1019.0
2017-May-24 03:29N 67°17' E 014°22'0 0.0
2017-May-24 02:59N 67°17' E 014°22'0 0.0
2017-May-24 02:29N 67°17' E 014°22'0 0.0
2017-May-24 01:59N 67°17' E 014°22'0 0.0
2017-May-24 01:29N 67°17' E 014°22'0 0.0
2017-May-24 00:59N 67°17' E 014°22'0 0.0
2017-May-24 00:29N 67°17' E 014°22'0 0.0
2017-May-23 23:59N 67°17' E 014°22'0 0.0
2017-May-23 23:29N 67°17' E 014°22'0 0.0
2017-May-23 22:59N 67°17' E 014°22'0 0.0
2017-May-23 22:29N 67°17' E 014°22'0 0.0
2017-May-23 21:59N 67°17' E 014°22'0 0.0
2017-May-23 21:29N 67°17' E 014°22'0 0.0
2017-May-23 20:59N 67°17' E 014°22'0 0.0
2017-May-23 20:29N 67°17' E 014°22'0 0.0
2017-May-23 19:59N 67°17' E 014°22'0 0.0
2017-May-23 19:29N 67°17' E 014°22'0 0.0
2017-May-23 18:59N 67°17' E 014°22'0 0.0
2017-May-23 18:29N 67°17' E 014°22'0 0.0
2017-May-23 17:59N 67°17' E 014°22'0 0.0
2017-May-23 17:29N 67°17' E 014°22'1 1.4
2017-May-23 17:01N 67°17' E 014°24'1 1.9
2017-May-23 16:31N 67°18' E 014°22'1218.8
2017-May-23 15:53N 67°20' E 013°52'2 5.2
2017-May-23 15:30N 67°21' E 013°48'5 9.8
2017-May-23 15:00N 67°25' E 013°56'1313.2
2017-May-23 14:01N 67°17' E 014°22'0 0.4
2017-May-23 13:30N 67°17' E 014°23'0 0.4
2017-May-23 13:01N 67°17' E 014°22'0 0.0
2017-May-23 12:30N 67°17' E 014°22'0 0.0
2017-May-23 12:00N 67°17' E 014°22'0 0.0
2017-May-23 11:31N 67°17' E 014°22'0 0.0
2017-May-23 11:01N 67°17' E 014°22'0 0.0
2017-May-23 10:31N 67°17' E 014°22'0 0.0
2017-May-23 10:00N 67°17' E 014°22'0 0.0
2017-May-23 09:31N 67°17' E 014°22'0 0.0
2017-May-23 09:00N 67°17' E 014°22'0 0.0
2017-May-23 08:30N 67°17' E 014°22'0 0.1
2017-May-23 08:01N 67°17' E 014°22'3 6.6
2017-May-23 07:30N 67°20' E 014°18'918.4
2017-May-23 07:00N 67°26' E 013°59'1016.1
2017-May-23 06:24N 67°18' E 013°43'715.8
2017-May-23 05:57N 67°24' E 013°54'717.0
2017-May-23 05:30N 67°23' E 014°13'713.3
2017-May-23 05:01N 67°17' E 014°21'1223.7
2017-May-23 04:30N 67°07' E 014°03'4 7.0
2017-May-23 04:01N 67°11' E 014°05'918.2
2017-May-23 03:31N 67°17' E 014°22'0 0.0
2017-May-23 02:59N 67°17' E 014°22'0 0.0
2017-May-23 02:29N 67°17' E 014°22'0 0.0
2017-May-23 01:59N 67°17' E 014°22'0 0.0
2017-May-23 01:29N 67°17' E 014°22'0 0.0
2017-May-23 00:59N 67°17' E 014°22'0 0.0
2017-May-23 00:29N 67°17' E 014°22'0 0.0
2017-May-22 23:59N 67°17' E 014°22'0 0.0
2017-May-22 23:29N 67°17' E 014°22'0 0.0
2017-May-22 22:59N 67°17' E 014°22'0 0.0
2017-May-22 22:29N 67°17' E 014°22'0 0.0
2017-May-22 21:59N 67°17' E 014°22'0 0.0
2017-May-22 21:29N 67°17' E 014°22'0 0.0
2017-May-22 20:59N 67°17' E 014°22'0 0.0
2017-May-22 20:29N 67°17' E 014°22'0 0.0
2017-May-22 19:59N 67°17' E 014°22'0 0.0
2017-May-22 19:29N 67°17' E 014°22'0 0.0
2017-May-22 18:59N 67°17' E 014°22'0 0.0
2017-May-22 18:29N 67°17' E 014°22'0 0.0
2017-May-22 17:59N 67°17' E 014°22'0 0.0
2017-May-22 17:29N 67°17' E 014°22'0 0.0
2017-May-22 16:59N 67°17' E 014°22'0 0.0
2017-May-22 16:29N 67°17' E 014°22'0 0.6
2017-May-22 16:01N 67°17' E 014°22'1122.2
2017-May-22 15:30N 67°14' E 013°54'613.1
2017-May-22 15:01N 67°08' E 013°49'1615.8
2017-May-22 14:00N 67°17' E 014°22'0 0.1
2017-May-22 13:30N 67°17' E 014°22'0 0.0
2017-May-22 13:00N 67°17' E 014°22'0 0.0
2017-May-22 12:30N 67°17' E 014°22'0 0.0
2017-May-22 12:00N 67°17' E 014°22'0 0.0
2017-May-22 11:30N 67°17' E 014°22'0 0.0
2017-May-22 11:00N 67°17' E 014°22'0 0.8
2017-May-22 10:30N 67°17' E 014°23'5 9.4
2017-May-22 10:01N 67°17' E 014°11'1020.6
2017-May-22 09:30N 67°11' E 013°49'4 8.0
2017-May-22 09:00N 67°07' E 013°55'611.1
2017-May-22 08:31N 67°11' E 014°05'917.9
2017-May-22 08:00N 67°17' E 014°22'0 0.0
2017-May-22 07:30N 67°17' E 014°22'0 0.0
2017-May-22 07:00N 67°17' E 014°22'0 0.0
2017-May-22 06:30N 67°17' E 014°22'0 0.0
2017-May-22 06:00N 67°17' E 014°22'0 0.0
2017-May-22 05:30N 67°17' E 014°22'1 1.3
2017-May-22 05:01N 67°17' E 014°21'1223.3
2017-May-22 04:30N 67°07' E 014°03'3 6.4
2017-May-22 04:01N 67°10' E 014°04'1019.0
2017-May-22 03:30N 67°17' E 014°22'0 0.0
2017-May-22 03:00N 67°17' E 014°22'0 0.0
2017-May-22 02:30N 67°17' E 014°22'0 0.0
2017-May-22 02:00N 67°17' E 014°22'0 0.0
2017-May-22 01:30N 67°17' E 014°22'0 0.0
2017-May-22 01:00N 67°17' E 014°22'0 0.0
2017-May-22 00:30N 67°17' E 014°22'0 0.0
2017-May-22 00:00N 67°17' E 014°22'0 0.0
2017-May-21 23:30N 67°17' E 014°22'0 0.0
2017-May-21 23:00N 67°17' E 014°22'0 0.0
2017-May-21 22:30N 67°17' E 014°22'0 0.0
2017-May-21 22:01N 67°17' E 014°22'0 0.0
2017-May-21 21:30N 67°17' E 014°22'0 0.0
2017-May-21 21:01N 67°17' E 014°22'0 0.0
2017-May-21 20:30N 67°17' E 014°22'0 0.0
2017-May-21 20:00N 67°17' E 014°22'0 0.0
2017-May-21 19:31N 67°17' E 014°22'1224.5
2017-May-21 19:00N 67°08' E 014°02'611.7
2017-May-21 18:31N 67°09' E 013°47'612.8
2017-May-21 18:01N 67°13' E 013°59'1019.8
2017-May-21 17:30N 67°17' E 014°22'2 4.3
2017-May-21 17:01N 67°19' E 014°21'918.4
2017-May-21 16:30N 67°25' E 014°02'611.6
2017-May-21 15:59N 67°22' E 013°49'713.6
2017-May-21 15:30N 67°16' E 013°58'1019.6
2017-May-21 15:00N 67°17' E 014°22'0 0.1
2017-May-21 14:30N 67°17' E 014°22'0 0.0
2017-May-21 13:30N 67°17' E 014°22'0 0.0
2017-May-21 13:00N 67°17' E 014°22'0 0.0
2017-May-21 12:30N 67°17' E 014°22'0 0.0
2017-May-21 12:00N 67°17' E 014°22'0 0.0
2017-May-21 11:31N 67°17' E 014°22'0 0.0
2017-May-21 11:00N 67°17' E 014°22'0 0.0
2017-May-21 10:30N 67°17' E 014°22'0 0.0
2017-May-21 10:00N 67°17' E 014°22'0 0.0
2017-May-21 09:30N 67°17' E 014°22'0 0.0
2017-May-21 09:00N 67°17' E 014°22'0 0.0
2017-May-21 08:30N 67°17' E 014°22'0 0.0
2017-May-21 08:00N 67°17' E 014°22'0 0.0
2017-May-21 07:30N 67°17' E 014°22'0 0.0
2017-May-21 07:00N 67°17' E 014°22'0 0.0
2017-May-21 06:30N 67°17' E 014°22'0 0.0
2017-May-21 06:01N 67°17' E 014°22'0 0.0
2017-May-21 05:31N 67°17' E 014°22'0 0.0
2017-May-21 05:00N 67°17' E 014°22'0 0.0
2017-May-21 04:31N 67°17' E 014°22'0 0.0
2017-May-21 04:01N 67°17' E 014°22'0 0.0
2017-May-21 03:30N 67°17' E 014°22'0 0.0
2017-May-21 03:00N 67°17' E 014°22'0 0.0
2017-May-21 02:30N 67°17' E 014°22'0 0.0
2017-May-21 02:00N 67°17' E 014°22'0 0.0
2017-May-21 01:30N 67°17' E 014°22'0 0.0
2017-May-21 01:01N 67°17' E 014°22'0 0.0
2017-May-21 00:30N 67°17' E 014°22'0 0.0
2017-May-21 00:00N 67°17' E 014°22'0 0.0
2017-May-20 23:30N 67°17' E 014°22'0 0.0
2017-May-20 23:00N 67°17' E 014°22'0 0.0
2017-May-20 22:30N 67°17' E 014°22'0 0.0
2017-May-20 22:01N 67°17' E 014°22'0 0.0
2017-May-20 21:30N 67°17' E 014°22'0 0.0
2017-May-20 21:00N 67°17' E 014°22'0 0.0
2017-May-20 20:30N 67°17' E 014°22'0 0.0
2017-May-20 20:01N 67°17' E 014°22'0 0.0
2017-May-20 19:31N 67°17' E 014°22'0 0.0
2017-May-20 19:00N 67°17' E 014°22'0 0.0
2017-May-20 18:30N 67°17' E 014°22'0 0.0
2017-May-20 18:00N 67°17' E 014°22'0 0.0
2017-May-20 17:31N 67°17' E 014°22'0 0.0
2017-May-20 17:01N 67°17' E 014°22'0 0.0
2017-May-20 16:30N 67°17' E 014°22'1 1.7
2017-May-20 16:01N 67°18' E 014°22'1324.9
2017-May-20 15:30N 67°24' E 013°54'714.0
2017-May-20 15:01N 67°24' E 014°12'816.2
2017-May-20 14:31N 67°17' E 014°22'1615.9
2017-May-20 13:30N 67°10' E 013°46'612.9
2017-May-20 13:00N 67°07' E 014°01'1019.3
2017-May-20 12:31N 67°15' E 014°16'3 6.2
2017-May-20 12:00N 67°17' E 014°22'0 0.0
2017-May-20 11:30N 67°17' E 014°22'0 0.0
2017-May-20 11:00N 67°17' E 014°22'0 0.0
2017-May-20 10:31N 67°17' E 014°22'0 0.0
2017-May-20 10:00N 67°17' E 014°22'0 0.0
2017-May-20 09:31N 67°17' E 014°22'916.7
2017-May-20 09:00N 67°24' E 014°11'1216.6
2017-May-20 08:16N 67°18' E 013°43'621.1
2017-May-20 08:01N 67°15' E 013°55'1020.7
2017-May-20 07:30N 67°17' E 014°22'815.9
2017-May-20 07:01N 67°12' E 014°07'612.1
2017-May-20 06:30N 67°07' E 013°57'5 9.5
2017-May-20 06:00N 67°11' E 013°50'1427.5
2017-May-20 05:30N 67°17' E 014°22'0 0.4
2017-May-20 04:59N 67°17' E 014°22'0 0.0
2017-May-20 04:29N 67°17' E 014°22'0 0.0
2017-May-20 03:59N 67°17' E 014°22'0 0.0
2017-May-20 03:29N 67°17' E 014°22'0 0.0
2017-May-20 02:59N 67°17' E 014°22'0 0.0
2017-May-20 02:29N 67°17' E 014°22'0 0.0
2017-May-20 01:59N 67°17' E 014°22'0 0.0
2017-May-20 01:29N 67°17' E 014°22'0 0.0
2017-May-20 00:59N 67°17' E 014°22'0 0.0
2017-May-20 00:29N 67°17' E 014°22'0 0.0
2017-May-19 23:59N 67°17' E 014°22'0 0.0
2017-May-19 23:29N 67°17' E 014°22'0 0.0
2017-May-19 22:59N 67°17' E 014°22'0 0.0
2017-May-19 22:29N 67°17' E 014°22'0 0.0
2017-May-19 21:59N 67°17' E 014°22'0 0.0
2017-May-19 21:29N 67°17' E 014°22'0 0.0
2017-May-19 20:59N 67°17' E 014°22'0 0.0
2017-May-19 20:29N 67°17' E 014°22'0 0.0
2017-May-19 19:59N 67°17' E 014°22'0 0.0
2017-May-19 19:29N 67°17' E 014°22'0 0.0
2017-May-19 18:59N 67°17' E 014°22'0 0.0
2017-May-19 18:29N 67°17' E 014°22'0 0.0
2017-May-19 17:59N 67°17' E 014°22'0 0.0
2017-May-19 17:29N 67°17' E 014°22'0 0.0
2017-May-19 16:58N 67°17' E 014°22'0 0.0
2017-May-19 16:30N 67°17' E 014°22'1 1.4
2017-May-19 16:01N 67°17' E 014°21'1427.2
2017-May-19 15:29N 67°18' E 013°43'713.2
2017-May-19 14:55N 67°24' E 013°54'1314.4
2017-May-19 14:00N 67°17' E 014°22'0 0.3
2017-May-19 13:31N 67°17' E 014°22'714.0
2017-May-19 13:01N 67°22' E 014°09'917.7
2017-May-19 12:29N 67°19' E 013°45'713.7
2017-May-19 12:00N 67°25' E 013°54'713.4
2017-May-19 11:30N 67°24' E 014°12'816.5
2017-May-19 11:00N 67°17' E 014°22'1 1.4
2017-May-19 10:30N 67°17' E 014°24'1 1.4
2017-May-19 10:00N 67°17' E 014°22'0 0.0
2017-May-19 09:31N 67°17' E 014°22'0 0.0
2017-May-19 09:01N 67°17' E 014°22'0 0.0
2017-May-19 08:30N 67°17' E 014°22'0 0.0
2017-May-19 08:00N 67°17' E 014°22'0 0.0
2017-May-19 07:31N 67°17' E 014°22'0 0.0
2017-May-19 07:00N 67°17' E 014°22'0 0.0
2017-May-19 06:30N 67°17' E 014°22'0 0.0
2017-May-19 06:00N 67°17' E 014°22'0 0.0
2017-May-19 05:31N 67°17' E 014°22'1 1.1
2017-May-19 05:01N 67°17' E 014°21'1223.7
2017-May-19 04:30N 67°07' E 014°03'4 7.3
2017-May-19 04:01N 67°11' E 014°05'918.0
2017-May-19 03:30N 67°17' E 014°22'0 0.0
2017-May-19 02:58N 67°17' E 014°22'0 0.0
2017-May-19 02:28N 67°17' E 014°22'0 0.0
2017-May-19 01:58N 67°17' E 014°22'0 0.0
2017-May-19 01:28N 67°17' E 014°22'0 0.0
2017-May-19 00:58N 67°17' E 014°22'0 0.0
2017-May-19 00:28N 67°17' E 014°22'0 0.0
2017-May-18 23:58N 67°17' E 014°22'0 0.0
2017-May-18 23:28N 67°17' E 014°22'0 0.0
2017-May-18 22:58N 67°17' E 014°22'0 0.0
2017-May-18 22:28N 67°17' E 014°22'0 0.0
2017-May-18 21:58N 67°17' E 014°22'0 0.0
2017-May-18 21:28N 67°17' E 014°22'0 0.0
2017-May-18 20:58N 67°17' E 014°22'0 0.0
2017-May-18 20:28N 67°17' E 014°22'2 4.5
2017-May-18 20:01N 67°17' E 014°17'1120.4
2017-May-18 19:28N 67°12' E 013°51'4 9.4
2017-May-18 19:01N 67°08' E 013°50'5 9.8
2017-May-18 18:31N 67°07' E 014°02'1224.7
2017-May-18 18:01N 67°17' E 014°22'0 0.0
2017-May-18 17:30N 67°17' E 014°22'0 0.0
2017-May-18 17:00N 67°17' E 014°22'0 0.0
2017-May-18 16:30N 67°17' E 014°22'0 0.0
2017-May-18 16:00N 67°17' E 014°22'2 4.4
2017-May-18 15:31N 67°19' E 014°20'1118.7
2017-May-18 14:54N 67°24' E 013°54'616.4
2017-May-18 14:30N 67°24' E 014°11'8 8.4
2017-May-18 13:31N 67°17' E 014°22'713.1
2017-May-18 13:01N 67°22' E 014°11'1122.3
2017-May-18 12:31N 67°18' E 013°43'714.8
2017-May-18 12:01N 67°25' E 013°54'815.8
2017-May-18 11:30N 67°23' E 014°15'714.2
2017-May-18 11:00N 67°17' E 014°22'0 0.9
2017-May-18 10:30N 67°17' E 014°23'3 5.6
2017-May-18 10:01N 67°17' E 014°16'1020.7
2017-May-18 09:30N 67°13' E 013°51'510.4
2017-May-18 09:00N 67°08' E 013°54'5 9.2
2017-May-18 08:30N 67°10' E 014°04'1019.9
2017-May-18 08:00N 67°17' E 014°22'0 0.0
2017-May-18 07:30N 67°17' E 014°22'0 0.0
2017-May-18 07:00N 67°17' E 014°22'0 0.0
2017-May-18 06:30N 67°17' E 014°22'0 0.0
2017-May-18 06:00N 67°17' E 014°22'0 0.0
2017-May-18 05:30N 67°17' E 014°22'0 0.6
2017-May-18 05:01N 67°17' E 014°22'1224.3
2017-May-18 04:30N 67°07' E 014°03'4 8.6
2017-May-18 04:01N 67°11' E 014°06'816.8
2017-May-18 03:30N 67°17' E 014°22'0 0.0
2017-May-18 02:58N 67°17' E 014°22'0 0.0
2017-May-18 02:28N 67°17' E 014°22'0 0.0
2017-May-18 01:58N 67°17' E 014°22'0 0.0
2017-May-18 01:28N 67°17' E 014°22'0 0.0
2017-May-18 00:58N 67°17' E 014°22'0 0.0
2017-May-18 00:28N 67°17' E 014°22'0 0.0
2017-May-17 23:58N 67°17' E 014°22'0 0.0
2017-May-17 23:28N 67°17' E 014°22'0 0.0
2017-May-17 22:58N 67°17' E 014°22'0 0.0
2017-May-17 22:28N 67°17' E 014°22'0 0.0
2017-May-17 21:58N 67°17' E 014°22'0 0.0
2017-May-17 21:28N 67°17' E 014°22'0 0.0
2017-May-17 20:58N 67°17' E 014°22'0 0.0
2017-May-17 20:28N 67°17' E 014°22'0 0.0
2017-May-17 19:59N 67°17' E 014°22'1122.5
2017-May-17 19:31N 67°13' E 013°57'510.0
2017-May-17 19:00N 67°08' E 013°51'4 8.3
2017-May-17 18:31N 67°08' E 014°02'1224.7
2017-May-17 18:00N 67°17' E 014°22'0 0.0
2017-May-17 17:30N 67°17' E 014°22'0 0.0
2017-May-17 17:00N 67°17' E 014°22'0 0.0
2017-May-17 16:31N 67°17' E 014°22'0 0.0
2017-May-17 16:00N 67°17' E 014°22'917.1
2017-May-17 15:29N 67°16' E 013°60'816.3
2017-May-17 15:00N 67°09' E 013°52'1414.4
2017-May-17 14:00N 67°17' E 014°22'0 0.0
2017-May-17 13:29N 67°17' E 014°22'0 0.0
2017-May-17 12:59N 67°17' E 014°22'0 0.0
2017-May-17 12:29N 67°17' E 014°22'0 0.0
2017-May-17 11:59N 67°17' E 014°22'0 0.0
2017-May-17 11:29N 67°17' E 014°22'0 0.0
2017-May-17 10:59N 67°17' E 014°22'0 0.0
2017-May-17 10:29N 67°17' E 014°22'0 0.0
2017-May-17 09:59N 67°17' E 014°22'0 0.0
2017-May-17 09:29N 67°17' E 014°22'0 0.0
2017-May-17 08:59N 67°17' E 014°22'0 0.0
2017-May-17 08:29N 67°17' E 014°22'0 0.0
2017-May-17 07:59N 67°17' E 014°22'0 0.0
2017-May-17 07:29N 67°17' E 014°22'0 0.0
2017-May-17 06:59N 67°17' E 014°22'0 0.0
2017-May-17 04:52N 67°17' E 014°22'3 3.2
2017-May-17 03:49N 67°15' E 014°16'310.3
2017-May-17 03:30N 67°17' E 014°22'0 0.0
2017-May-16 22:30N 67°17' E 014°22'0 0.0
2017-May-16 21:36N 67°17' E 014°22'0 0.0
2017-May-16 21:18N 67°17' E 014°22'0 0.0
2017-May-16 20:48N 67°17' E 014°22'0 0.0
2017-May-16 20:24N 67°17' E 014°22'0 0.0
2017-May-16 19:42N 67°17' E 014°22'0 0.0
2017-May-16 19:30N 67°17' E 014°22'0 0.0
2017-May-16 19:00N 67°17' E 014°22'0 0.0
2017-May-16 18:30N 67°17' E 014°22'0 0.0
2017-May-16 17:48N 67°17' E 014°22'0 0.0
2017-May-16 17:24N 67°17' E 014°22'0 0.0
2017-May-16 16:53N 67°17' E 014°22'0 0.0
2017-May-16 16:30N 67°17' E 014°22'6 2.8
2017-May-16 14:19N 67°22' E 014°13'6 7.5
2017-May-16 13:30N 67°17' E 014°24'0 0.7
2017-May-16 12:59N 67°17' E 014°23'0 0.4
2017-May-16 12:04N 67°17' E 014°22'0 0.0
2017-May-16 11:46N 67°17' E 014°22'0 0.0
2017-May-16 11:28N 67°17' E 014°22'  
Track history (hours):
 
Tides and Currents Weather Stations Pressure Air Temp Water Temp Dewpoint Dewpoint Depression Visibility Wind Speed Wind Dir Waves Ship Positions

Fjordprinsessen

Last reported at 2017-May-26 09:30 UTC. Time now 2017-May-26 09:33 UTC.
Position N 67°17' E 014°22'.

Length 30 m.

Type: High speed craft. MMSI: 259604000.

Date/timePositionNaut miles runAvg speedWind from/ knotsBaromVisibWave heightAir tempDewpointWater temp
2017-May-26 09:30N 67°17' E 014°22'0 0.0
2017-May-26 09:00N 67°17' E 014°22'0 0.0
2017-May-26 08:30N 67°17' E 014°22'0 0.0
2017-May-26 08:00N 67°17' E 014°22'0 0.0
2017-May-26 07:30N 67°17' E 014°22'0 0.0
2017-May-26 07:00N 67°17' E 014°22'0 0.0
2017-May-26 06:30N 67°17' E 014°22'0 0.0
2017-May-26 06:00N 67°17' E 014°22'0 0.0
2017-May-26 05:30N 67°17' E 014°22'0 0.3
2017-May-26 05:01N 67°17' E 014°22'1224.6
2017-May-26 04:31N 67°07' E 014°03'4 7.3
2017-May-26 04:01N 67°11' E 014°05'918.0
2017-May-26 03:30N 67°17' E 014°22'0 0.0
2017-May-26 02:59N 67°17' E 014°22'0 0.0
2017-May-26 02:29N 67°17' E 014°22'0 0.0
2017-May-26 01:59N 67°17' E 014°22'0 0.0
2017-May-26 01:29N 67°17' E 014°22'0 0.0
2017-May-26 00:59N 67°17' E 014°22'0 0.0
2017-May-26 00:29N 67°17' E 014°22'0 0.0
2017-May-25 23:59N 67°17' E 014°22'0 0.0
2017-May-25 23:29N 67°17' E 014°22'0 0.0
2017-May-25 22:59N 67°17' E 014°22'0 0.0
2017-May-25 22:29N 67°17' E 014°22'0 0.0
2017-May-25 21:59N 67°17' E 014°22'0 0.0
2017-May-25 21:29N 67°17' E 014°22'0 0.0
2017-May-25 20:59N 67°17' E 014°22'0 0.0
2017-May-25 20:29N 67°17' E 014°22'3 6.8
2017-May-25 20:01N 67°17' E 014°14'1019.3
2017-May-25 19:29N 67°12' E 013°51'3 6.4
2017-May-25 19:00N 67°09' E 013°52'4 8.4
2017-May-25 18:31N 67°07' E 014°02'1224.9
2017-May-25 18:01N 67°17' E 014°22'0 0.0
2017-May-25 17:30N 67°17' E 014°22'0 0.0
2017-May-25 17:00N 67°17' E 014°22'0 0.0
2017-May-25 16:30N 67°17' E 014°22'0 0.0
2017-May-25 16:00N 67°17' E 014°22'612.1
2017-May-25 15:31N 67°22' E 014°13'813.9
2017-May-25 14:57N 67°24' E 013°54'717.1
2017-May-25 14:30N 67°24' E 014°13'8 7.6
2017-May-25 13:30N 67°17' E 014°22'0 0.0
2017-May-25 13:00N 67°17' E 014°22'0 0.0
2017-May-25 12:30N 67°17' E 014°22'0 0.0
2017-May-25 12:00N 67°17' E 014°22'0 0.0
2017-May-25 11:30N 67°17' E 014°22'0 0.0
2017-May-25 11:00N 67°17' E 014°22'0 0.0
2017-May-25 10:30N 67°17' E 014°22'510.4
2017-May-25 10:01N 67°17' E 014°09'1020.0
2017-May-25 09:31N 67°11' E 013°49'4 8.5
2017-May-25 09:01N 67°07' E 013°55'510.4
2017-May-25 08:31N 67°11' E 014°05'918.6
2017-May-25 08:00N 67°17' E 014°22'0 0.0
2017-May-25 07:28N 67°17' E 014°22'0 0.0
2017-May-25 06:58N 67°17' E 014°22'0 0.0
2017-May-25 06:28N 67°17' E 014°22'0 0.0
2017-May-25 05:58N 67°17' E 014°22'0 0.0
2017-May-25 05:28N 67°17' E 014°22'0 0.0
2017-May-25 04:58N 67°17' E 014°22'0 0.0
2017-May-25 04:28N 67°17' E 014°22'0 0.0
2017-May-25 03:58N 67°17' E 014°22'0 0.0
2017-May-25 03:28N 67°17' E 014°22'0 0.0
2017-May-25 02:58N 67°17' E 014°22'0 0.0
2017-May-25 02:28N 67°17' E 014°22'0 0.0
2017-May-25 01:58N 67°17' E 014°22'0 0.0
2017-May-25 01:28N 67°17' E 014°22'0 0.0
2017-May-25 00:58N 67°17' E 014°22'0 0.0
2017-May-25 00:28N 67°17' E 014°22'0 0.0
2017-May-24 23:58N 67°17' E 014°22'0 0.0
2017-May-24 23:28N 67°17' E 014°22'0 0.0
2017-May-24 22:58N 67°17' E 014°22'0 0.0
2017-May-24 22:28N 67°17' E 014°22'0 0.0
2017-May-24 21:58N 67°17' E 014°22'0 0.0
2017-May-24 21:28N 67°17' E 014°22'0 0.0
2017-May-24 20:58N 67°17' E 014°22'0 0.0
2017-May-24 20:28N 67°17' E 014°22'0 0.0
2017-May-24 20:00N 67°17' E 014°22'1121.3
2017-May-24 19:31N 67°12' E 013°59'510.7
2017-May-24 19:00N 67°08' E 013°49'510.3
2017-May-24 18:31N 67°08' E 014°02'1224.4
2017-May-24 18:00N 67°17' E 014°22'0 0.0
2017-May-24 17:30N 67°17' E 014°22'0 0.0
2017-May-24 17:00N 67°17' E 014°22'0 0.2
2017-May-24 16:31N 67°17' E 014°23'916.4
2017-May-24 15:59N 67°17' E 014°01'918.6
2017-May-24 15:30N 67°10' E 013°46'510.2
2017-May-24 15:00N 67°07' E 013°57'2 3.8
2017-May-24 14:30N 67°08' E 014°02'1212.2
2017-May-24 13:30N 67°17' E 014°22'0 0.3
2017-May-24 13:00N 67°17' E 014°23'0 0.3
2017-May-24 12:30N 67°17' E 014°22'0 0.0
2017-May-24 12:00N 67°17' E 014°22'0 0.0
2017-May-24 11:30N 67°17' E 014°22'0 0.0
2017-May-24 11:00N 67°17' E 014°22'0 0.0
2017-May-24 10:30N 67°17' E 014°22'0 0.0
2017-May-24 10:00N 67°17' E 014°22'0 0.0
2017-May-24 09:30N 67°17' E 014°22'0 0.0
2017-May-24 09:00N 67°17' E 014°22'918.0
2017-May-24 08:31N 67°25' E 014°33'2211.5
2017-May-24 06:36N 67°47' E 014°31'225.2
2017-May-24 06:30N 67°46' E 014°37'815.9
2017-May-24 06:00N 67°38' E 014°42'1427.4
2017-May-24 05:30N 67°25' E 014°32'917.7
2017-May-24 05:01N 67°17' E 014°22'1224.3
2017-May-24 04:30N 67°07' E 014°03'3 5.7
2017-May-24 04:01N 67°10' E 014°04'1019.0
2017-May-24 03:29N 67°17' E 014°22'0 0.0
2017-May-24 02:59N 67°17' E 014°22'0 0.0
2017-May-24 02:29N 67°17' E 014°22'0 0.0
2017-May-24 01:59N 67°17' E 014°22'0 0.0
2017-May-24 01:29N 67°17' E 014°22'0 0.0
2017-May-24 00:59N 67°17' E 014°22'0 0.0
2017-May-24 00:29N 67°17' E 014°22'0 0.0
2017-May-23 23:59N 67°17' E 014°22'0 0.0
2017-May-23 23:29N 67°17' E 014°22'0 0.0
2017-May-23 22:59N 67°17' E 014°22'0 0.0
2017-May-23 22:29N 67°17' E 014°22'0 0.0
2017-May-23 21:59N 67°17' E 014°22'0 0.0
2017-May-23 21:29N 67°17' E 014°22'0 0.0
2017-May-23 20:59N 67°17' E 014°22'0 0.0
2017-May-23 20:29N 67°17' E 014°22'0 0.0
2017-May-23 19:59N 67°17' E 014°22'0 0.0
2017-May-23 19:29N 67°17' E 014°22'0 0.0
2017-May-23 18:59N 67°17' E 014°22'0 0.0
2017-May-23 18:29N 67°17' E 014°22'0 0.0
2017-May-23 17:59N 67°17' E 014°22'0 0.0
2017-May-23 17:29N 67°17' E 014°22'1 1.4
2017-May-23 17:01N 67°17' E 014°24'1 1.9
2017-May-23 16:31N 67°18' E 014°22'1218.8
2017-May-23 15:53N 67°20' E 013°52'2 5.2
2017-May-23 15:30N 67°21' E 013°48'5 9.8
2017-May-23 15:00N 67°25' E 013°56'1313.2
2017-May-23 14:01N 67°17' E 014°22'0 0.4
2017-May-23 13:30N 67°17' E 014°23'0 0.4
2017-May-23 13:01N 67°17' E 014°22'0 0.0
2017-May-23 12:30N 67°17' E 014°22'0 0.0
2017-May-23 12:00N 67°17' E 014°22'0 0.0
2017-May-23 11:31N 67°17' E 014°22'0 0.0
2017-May-23 11:01N 67°17' E 014°22'0 0.0
2017-May-23 10:31N 67°17' E 014°22'0 0.0
2017-May-23 10:00N 67°17' E 014°22'0 0.0
2017-May-23 09:31N 67°17' E 014°22'0 0.0
2017-May-23 09:00N 67°17' E 014°22'0 0.0
2017-May-23 08:30N 67°17' E 014°22'0 0.1
2017-May-23 08:01N 67°17' E 014°22'3 6.6
2017-May-23 07:30N 67°20' E 014°18'918.4
2017-May-23 07:00N 67°26' E 013°59'1016.1
2017-May-23 06:24N 67°18' E 013°43'715.8
2017-May-23 05:57N 67°24' E 013°54'717.0
2017-May-23 05:30N 67°23' E 014°13'713.3
2017-May-23 05:01N 67°17' E 014°21'1223.7
2017-May-23 04:30N 67°07' E 014°03'4 7.0
2017-May-23 04:01N 67°11' E 014°05'918.2
2017-May-23 03:31N 67°17' E 014°22'0 0.0
2017-May-23 02:59N 67°17' E 014°22'0 0.0
2017-May-23 02:29N 67°17' E 014°22'0 0.0
2017-May-23 01:59N 67°17' E 014°22'0 0.0
2017-May-23 01:29N 67°17' E 014°22'0 0.0
2017-May-23 00:59N 67°17' E 014°22'0 0.0
2017-May-23 00:29N 67°17' E 014°22'0 0.0
2017-May-22 23:59N 67°17' E 014°22'0 0.0
2017-May-22 23:29N 67°17' E 014°22'0 0.0
2017-May-22 22:59N 67°17' E 014°22'0 0.0
2017-May-22 22:29N 67°17' E 014°22'0 0.0
2017-May-22 21:59N 67°17' E 014°22'0 0.0
2017-May-22 21:29N 67°17' E 014°22'0 0.0
2017-May-22 20:59N 67°17' E 014°22'0 0.0
2017-May-22 20:29N 67°17' E 014°22'0 0.0
2017-May-22 19:59N 67°17' E 014°22'0 0.0
2017-May-22 19:29N 67°17' E 014°22'0 0.0
2017-May-22 18:59N 67°17' E 014°22'0 0.0
2017-May-22 18:29N 67°17' E 014°22'0 0.0
2017-May-22 17:59N 67°17' E 014°22'0 0.0
2017-May-22 17:29N 67°17' E 014°22'0 0.0
2017-May-22 16:59N 67°17' E 014°22'0 0.0
2017-May-22 16:29N 67°17' E 014°22'0 0.6
2017-May-22 16:01N 67°17' E 014°22'1122.2
2017-May-22 15:30N 67°14' E 013°54'613.1
2017-May-22 15:01N 67°08' E 013°49'1615.8
2017-May-22 14:00N 67°17' E 014°22'0 0.1
2017-May-22 13:30N 67°17' E 014°22'0 0.0
2017-May-22 13:00N 67°17' E 014°22'0 0.0
2017-May-22 12:30N 67°17' E 014°22'0 0.0
2017-May-22 12:00N 67°17' E 014°22'0 0.0
2017-May-22 11:30N 67°17' E 014°22'0 0.0
2017-May-22 11:00N 67°17' E 014°22'0 0.8
2017-May-22 10:30N 67°17' E 014°23'5 9.4
2017-May-22 10:01N 67°17' E 014°11'1020.6
2017-May-22 09:30N 67°11' E 013°49'4 8.0
2017-May-22 09:00N 67°07' E 013°55'611.1
2017-May-22 08:31N 67°11' E 014°05'917.9
2017-May-22 08:00N 67°17' E 014°22'0 0.0
2017-May-22 07:30N 67°17' E 014°22'0 0.0
2017-May-22 07:00N 67°17' E 014°22'0 0.0
2017-May-22 06:30N 67°17' E 014°22'0 0.0
2017-May-22 06:00N 67°17' E 014°22'0 0.0
2017-May-22 05:30N 67°17' E 014°22'1 1.3
2017-May-22 05:01N 67°17' E 014°21'1223.3
2017-May-22 04:30N 67°07' E 014°03'3 6.4
2017-May-22 04:01N 67°10' E 014°04'1019.0
2017-May-22 03:30N 67°17' E 014°22'0 0.0
2017-May-22 03:00N 67°17' E 014°22'0 0.0
2017-May-22 02:30N 67°17' E 014°22'0 0.0
2017-May-22 02:00N 67°17' E 014°22'0 0.0
2017-May-22 01:30N 67°17' E 014°22'0 0.0
2017-May-22 01:00N 67°17' E 014°22'0 0.0
2017-May-22 00:30N 67°17' E 014°22'0 0.0
2017-May-22 00:00N 67°17' E 014°22'0 0.0
2017-May-21 23:30N 67°17' E 014°22'0 0.0
2017-May-21 23:00N 67°17' E 014°22'0 0.0
2017-May-21 22:30N 67°17' E 014°22'0 0.0
2017-May-21 22:01N 67°17' E 014°22'0 0.0
2017-May-21 21:30N 67°17' E 014°22'0 0.0
2017-May-21 21:01N 67°17' E 014°22'0 0.0
2017-May-21 20:30N 67°17' E 014°22'0 0.0
2017-May-21 20:00N 67°17' E 014°22'0 0.0
2017-May-21 19:31N 67°17' E 014°22'1224.5
2017-May-21 19:00N 67°08' E 014°02'611.7
2017-May-21 18:31N 67°09' E 013°47'612.8
2017-May-21 18:01N 67°13' E 013°59'1019.8
2017-May-21 17:30N 67°17' E 014°22'2 4.3
2017-May-21 17:01N 67°19' E 014°21'918.4
2017-May-21 16:30N 67°25' E 014°02'611.6
2017-May-21 15:59N 67°22' E 013°49'713.6
2017-May-21 15:30N 67°16' E 013°58'1019.6
2017-May-21 15:00N 67°17' E 014°22'0 0.1
2017-May-21 14:30N 67°17' E 014°22'0 0.0
2017-May-21 13:30N 67°17' E 014°22'0 0.0
2017-May-21 13:00N 67°17' E 014°22'0 0.0
2017-May-21 12:30N 67°17' E 014°22'0 0.0
2017-May-21 12:00N 67°17' E 014°22'0 0.0
2017-May-21 11:31N 67°17' E 014°22'0 0.0
2017-May-21 11:00N 67°17' E 014°22'0 0.0
2017-May-21 10:30N 67°17' E 014°22'0 0.0
2017-May-21 10:00N 67°17' E 014°22'0 0.0
2017-May-21 09:30N 67°17' E 014°22'0 0.0
2017-May-21 09:00N 67°17' E 014°22'0 0.0
2017-May-21 08:30N 67°17' E 014°22'0 0.0
2017-May-21 08:00N 67°17' E 014°22'0 0.0
2017-May-21 07:30N 67°17' E 014°22'0 0.0
2017-May-21 07:00N 67°17' E 014°22'0 0.0
2017-May-21 06:30N 67°17' E 014°22'0 0.0
2017-May-21 06:01N 67°17' E 014°22'0 0.0
2017-May-21 05:31N 67°17' E 014°22'0 0.0
2017-May-21 05:00N 67°17' E 014°22'0 0.0
2017-May-21 04:31N 67°17' E 014°22'0 0.0
2017-May-21 04:01N 67°17' E 014°22'0 0.0
2017-May-21 03:30N 67°17' E 014°22'0 0.0
2017-May-21 03:00N 67°17' E 014°22'0 0.0
2017-May-21 02:30N 67°17' E 014°22'0 0.0
2017-May-21 02:00N 67°17' E 014°22'0 0.0
2017-May-21 01:30N 67°17' E 014°22'0 0.0
2017-May-21 01:01N 67°17' E 014°22'0 0.0
2017-May-21 00:30N 67°17' E 014°22'0 0.0
2017-May-21 00:00N 67°17' E 014°22'0 0.0
2017-May-20 23:30N 67°17' E 014°22'0 0.0
2017-May-20 23:00N 67°17' E 014°22'0 0.0
2017-May-20 22:30N 67°17' E 014°22'0 0.0
2017-May-20 22:01N 67°17' E 014°22'0 0.0
2017-May-20 21:30N 67°17' E 014°22'0 0.0
2017-May-20 21:00N 67°17' E 014°22'0 0.0
2017-May-20 20:30N 67°17' E 014°22'0 0.0
2017-May-20 20:01N 67°17' E 014°22'0 0.0
2017-May-20 19:31N 67°17' E 014°22'0 0.0
2017-May-20 19:00N 67°17' E 014°22'0 0.0
2017-May-20 18:30N 67°17' E 014°22'0 0.0
2017-May-20 18:00N 67°17' E 014°22'0 0.0
2017-May-20 17:31N 67°17' E 014°22'0 0.0
2017-May-20 17:01N 67°17' E 014°22'0 0.0
2017-May-20 16:30N 67°17' E 014°22'1 1.7
2017-May-20 16:01N 67°18' E 014°22'1324.9
2017-May-20 15:30N 67°24' E 013°54'714.0
2017-May-20 15:01N 67°24' E 014°12'816.2
2017-May-20 14:31N 67°17' E 014°22'1615.9
2017-May-20 13:30N 67°10' E 013°46'612.9
2017-May-20 13:00N 67°07' E 014°01'1019.3
2017-May-20 12:31N 67°15' E 014°16'3 6.2
2017-May-20 12:00N 67°17' E 014°22'0 0.0
2017-May-20 11:30N 67°17' E 014°22'0 0.0
2017-May-20 11:00N 67°17' E 014°22'0 0.0
2017-May-20 10:31N 67°17' E 014°22'0 0.0
2017-May-20 10:00N 67°17' E 014°22'0 0.0
2017-May-20 09:31N 67°17' E 014°22'916.7
2017-May-20 09:00N 67°24' E 014°11'1216.6
2017-May-20 08:16N 67°18' E 013°43'621.1
2017-May-20 08:01N 67°15' E 013°55'1020.7
2017-May-20 07:30N 67°17' E 014°22'815.9
2017-May-20 07:01N 67°12' E 014°07'612.1
2017-May-20 06:30N 67°07' E 013°57'5 9.5
2017-May-20 06:00N 67°11' E 013°50'1427.5
2017-May-20 05:30N 67°17' E 014°22'0 0.4
2017-May-20 04:59N 67°17' E 014°22'0 0.0
2017-May-20 04:29N 67°17' E 014°22'0 0.0
2017-May-20 03:59N 67°17' E 014°22'0 0.0
2017-May-20 03:29N 67°17' E 014°22'0 0.0
2017-May-20 02:59N 67°17' E 014°22'0 0.0
2017-May-20 02:29N 67°17' E 014°22'0 0.0
2017-May-20 01:59N 67°17' E 014°22'0 0.0
2017-May-20 01:29N 67°17' E 014°22'0 0.0
2017-May-20 00:59N 67°17' E 014°22'0 0.0
2017-May-20 00:29N 67°17' E 014°22'0 0.0
2017-May-19 23:59N 67°17' E 014°22'0 0.0
2017-May-19 23:29N 67°17' E 014°22'0 0.0
2017-May-19 22:59N 67°17' E 014°22'0 0.0
2017-May-19 22:29N 67°17' E 014°22'0 0.0
2017-May-19 21:59N 67°17' E 014°22'0 0.0
2017-May-19 21:29N 67°17' E 014°22'0 0.0
2017-May-19 20:59N 67°17' E 014°22'0 0.0
2017-May-19 20:29N 67°17' E 014°22'0 0.0
2017-May-19 19:59N 67°17' E 014°22'0 0.0
2017-May-19 19:29N 67°17' E 014°22'0 0.0
2017-May-19 18:59N 67°17' E 014°22'0 0.0
2017-May-19 18:29N 67°17' E 014°22'0 0.0
2017-May-19 17:59N 67°17' E 014°22'0 0.0
2017-May-19 17:29N 67°17' E 014°22'0 0.0
2017-May-19 16:58N 67°17' E 014°22'0 0.0
2017-May-19 16:30N 67°17' E 014°22'1 1.4
2017-May-19 16:01N 67°17' E 014°21'1427.2
2017-May-19 15:29N 67°18' E 013°43'713.2
2017-May-19 14:55N 67°24' E 013°54'1314.4
2017-May-19 14:00N 67°17' E 014°22'0 0.3
2017-May-19 13:31N 67°17' E 014°22'714.0
2017-May-19 13:01N 67°22' E 014°09'917.7
2017-May-19 12:29N 67°19' E 013°45'713.7
2017-May-19 12:00N 67°25' E 013°54'713.4
2017-May-19 11:30N 67°24' E 014°12'816.5
2017-May-19 11:00N 67°17' E 014°22'1 1.4
2017-May-19 10:30N 67°17' E 014°24'1 1.4
2017-May-19 10:00N 67°17' E 014°22'0 0.0
2017-May-19 09:31N 67°17' E 014°22'0 0.0
2017-May-19 09:01N 67°17' E 014°22'0 0.0
2017-May-19 08:30N 67°17' E 014°22'0 0.0
2017-May-19 08:00N 67°17' E 014°22'0 0.0
2017-May-19 07:31N 67°17' E 014°22'0 0.0
2017-May-19 07:00N 67°17' E 014°22'0 0.0
2017-May-19 06:30N 67°17' E 014°22'0 0.0
2017-May-19 06:00N 67°17' E 014°22'0 0.0
2017-May-19 05:31N 67°17' E 014°22'1 1.1
2017-May-19 05:01N 67°17' E 014°21'1223.7
2017-May-19 04:30N 67°07' E 014°03'4 7.3
2017-May-19 04:01N 67°11' E 014°05'918.0
2017-May-19 03:30N 67°17' E 014°22'0 0.0
2017-May-19 02:58N 67°17' E 014°22'0 0.0
2017-May-19 02:28N 67°17' E 014°22'0 0.0
2017-May-19 01:58N 67°17' E 014°22'0 0.0
2017-May-19 01:28N 67°17' E 014°22'0 0.0
2017-May-19 00:58N 67°17' E 014°22'0 0.0
2017-May-19 00:28N 67°17' E 014°22'0 0.0
2017-May-18 23:58N 67°17' E 014°22'0 0.0
2017-May-18 23:28N 67°17' E 014°22'0 0.0
2017-May-18 22:58N 67°17' E 014°22'0 0.0
2017-May-18 22:28N 67°17' E 014°22'0 0.0
2017-May-18 21:58N 67°17' E 014°22'0 0.0
2017-May-18 21:28N 67°17' E 014°22'0 0.0
2017-May-18 20:58N 67°17' E 014°22'0 0.0
2017-May-18 20:28N 67°17' E 014°22'2 4.5
2017-May-18 20:01N 67°17' E 014°17'1120.4
2017-May-18 19:28N 67°12' E 013°51'4 9.4
2017-May-18 19:01N 67°08' E 013°50'5 9.8
2017-May-18 18:31N 67°07' E 014°02'1224.7
2017-May-18 18:01N 67°17' E 014°22'0 0.0
2017-May-18 17:30N 67°17' E 014°22'0 0.0
2017-May-18 17:00N 67°17' E 014°22'0 0.0
2017-May-18 16:30N 67°17' E 014°22'0 0.0
2017-May-18 16:00N 67°17' E 014°22'2 4.4
2017-May-18 15:31N 67°19' E 014°20'1118.7
2017-May-18 14:54N 67°24' E 013°54'616.4
2017-May-18 14:30N 67°24' E 014°11'8 8.4
2017-May-18 13:31N 67°17' E 014°22'713.1
2017-May-18 13:01N 67°22' E 014°11'1122.3
2017-May-18 12:31N 67°18' E 013°43'714.8
2017-May-18 12:01N 67°25' E 013°54'815.8
2017-May-18 11:30N 67°23' E 014°15'714.2
2017-May-18 11:00N 67°17' E 014°22'0 0.9
2017-May-18 10:30N 67°17' E 014°23'3 5.6
2017-May-18 10:01N 67°17' E 014°16'1020.7
2017-May-18 09:30N 67°13' E 013°51'510.4
2017-May-18 09:00N 67°08' E 013°54'5 9.2
2017-May-18 08:30N 67°10' E 014°04'1019.9
2017-May-18 08:00N 67°17' E 014°22'0 0.0
2017-May-18 07:30N 67°17' E 014°22'0 0.0
2017-May-18 07:00N 67°17' E 014°22'0 0.0
2017-May-18 06:30N 67°17' E 014°22'0 0.0
2017-May-18 06:00N 67°17' E 014°22'0 0.0
2017-May-18 05:30N 67°17' E 014°22'0 0.6
2017-May-18 05:01N 67°17' E 014°22'1224.3
2017-May-18 04:30N 67°07' E 014°03'4 8.6
2017-May-18 04:01N 67°11' E 014°06'816.8
2017-May-18 03:30N 67°17' E 014°22'0 0.0
2017-May-18 02:58N 67°17' E 014°22'0 0.0
2017-May-18 02:28N 67°17' E 014°22'0 0.0
2017-May-18 01:58N 67°17' E 014°22'0 0.0
2017-May-18 01:28N 67°17' E 014°22'0 0.0
2017-May-18 00:58N 67°17' E 014°22'0 0.0
2017-May-18 00:28N 67°17' E 014°22'0 0.0
2017-May-17 23:58N 67°17' E 014°22'0 0.0
2017-May-17 23:28N 67°17' E 014°22'0 0.0
2017-May-17 22:58N 67°17' E 014°22'0 0.0
2017-May-17 22:28N 67°17' E 014°22'0 0.0
2017-May-17 21:58N 67°17' E 014°22'0 0.0
2017-May-17 21:28N 67°17' E 014°22'0 0.0
2017-May-17 20:58N 67°17' E 014°22'0 0.0
2017-May-17 20:28N 67°17' E 014°22'0 0.0
2017-May-17 19:59N 67°17' E 014°22'1122.5
2017-May-17 19:31N 67°13' E 013°57'510.0
2017-May-17 19:00N 67°08' E 013°51'4 8.3
2017-May-17 18:31N 67°08' E 014°02'1224.7
2017-May-17 18:00N 67°17' E 014°22'0 0.0
2017-May-17 17:30N 67°17' E 014°22'0 0.0
2017-May-17 17:00N 67°17' E 014°22'0 0.0
2017-May-17 16:31N 67°17' E 014°22'0 0.0
2017-May-17 16:00N 67°17' E 014°22'917.1
2017-May-17 15:29N 67°16' E 013°60'816.3
2017-May-17 15:00N 67°09' E 013°52'1414.4
2017-May-17 14:00N 67°17' E 014°22'0 0.0
2017-May-17 13:29N 67°17' E 014°22'0 0.0
2017-May-17 12:59N 67°17' E 014°22'0 0.0
2017-May-17 12:29N 67°17' E 014°22'0 0.0
2017-May-17 11:59N 67°17' E 014°22'0 0.0
2017-May-17 11:29N 67°17' E 014°22'0 0.0
2017-May-17 10:59N 67°17' E 014°22'0 0.0
2017-May-17 10:29N 67°17' E 014°22'0 0.0
2017-May-17 09:59N 67°17' E 014°22'0 0.0
2017-May-17 09:29N 67°17' E 014°22'0 0.0
2017-May-17 08:59N 67°17' E 014°22'0 0.0
2017-May-17 08:29N 67°17' E 014°22'0 0.0
2017-May-17 07:59N 67°17' E 014°22'0 0.0
2017-May-17 07:29N 67°17' E 014°22'0 0.0
2017-May-17 06:59N 67°17' E 014°22'0 0.0
2017-May-17 04:52N 67°17' E 014°22'3 3.2
2017-May-17 03:49N 67°15' E 014°16'310.3
2017-May-17 03:30N 67°17' E 014°22'0 0.0
2017-May-16 22:30N 67°17' E 014°22'0 0.0
2017-May-16 21:36N 67°17' E 014°22'0 0.0
2017-May-16 21:18N 67°17' E 014°22'0 0.0
2017-May-16 20:48N 67°17' E 014°22'0 0.0
2017-May-16 20:24N 67°17' E 014°22'0 0.0
2017-May-16 19:42N 67°17' E 014°22'0 0.0
2017-May-16 19:30N 67°17' E 014°22'0 0.0
2017-May-16 19:00N 67°17' E 014°22'0 0.0
2017-May-16 18:30N 67°17' E 014°22'0 0.0
2017-May-16 17:48N 67°17' E 014°22'0 0.0
2017-May-16 17:24N 67°17' E 014°22'0 0.0
2017-May-16 16:53N 67°17' E 014°22'0 0.0
2017-May-16 16:30N 67°17' E 014°22'6 2.8
2017-May-16 14:19N 67°22' E 014°13'6 7.5
2017-May-16 13:30N 67°17' E 014°24'0 0.7
2017-May-16 12:59N 67°17' E 014°23'0 0.4
2017-May-16 12:04N 67°17' E 014°22'0 0.0
2017-May-16 11:46N 67°17' E 014°22'0 0.0
2017-May-16 11:28N 67°17' E 014°22'  

Dump ship's entire track history